Time;durP1;ratioP1;P1;durP2;ratioP2;P2;SDS_P1;SDS_P2;PMS_P1;PMS_P2;Temp;Humidity;BMP_temperature;BMP_pressure;BME280_temperature;BME280_humidity;BME280_pressure;Samples;Min_cycle;Max_cycle;Signal;HPM_P1;HPM_P2
2022/03/22 00:00:09;;;;;;;32.73;17.53;;;5.40;99.90;;;;;;5010674;28;20988;-73
2022/03/22 00:02:36;;;;;;;30.93;17.20;;;5.40;99.90;;;;;;5010746;28;20455;-73
2022/03/22 00:05:03;;;;;;;29.37;17.10;;;5.30;99.90;;;;;;5010297;28;20458;-73
2022/03/22 00:07:30;;;;;;;27.70;17.57;;;5.30;99.90;;;;;;5010428;28;20482;-73
2022/03/22 00:09:58;;;;;;;33.60;17.20;;;5.20;99.90;;;;;;5010442;28;21036;-73
2022/03/22 00:12:26;;;;;;;29.00;15.77;;;5.20;99.90;;;;;;5010844;28;20528;-73
2022/03/22 00:14:52;;;;;;;24.97;15.30;;;5.20;99.90;;;;;;5010126;28;20453;-73
2022/03/22 00:17:20;;;;;;;29.50;16.33;;;5.20;99.90;;;;;;5010430;28;20462;-73
2022/03/22 00:19:47;;;;;;;30.60;16.00;;;5.20;99.90;;;;;;5011099;28;20508;-73
2022/03/22 00:22:14;;;;;;;24.07;16.00;;;5.20;99.90;;;;;;5014343;28;20958;-73
2022/03/22 00:24:41;;;;;;;28.20;15.23;;;5.10;99.90;;;;;;5013893;28;20463;-73
2022/03/22 00:27:09;;;;;;;32.83;16.30;;;5.10;99.90;;;;;;5014203;28;20469;-73
2022/03/22 00:29:36;;;;;;;29.13;15.60;;;5.20;99.90;;;;;;5009606;28;20497;-73
2022/03/22 00:32:03;;;;;;;25.83;15.00;;;5.10;99.90;;;;;;5014796;28;20812;-73
2022/03/22 00:34:30;;;;;;;25.67;15.23;;;5.10;99.90;;;;;;5014326;28;20528;-73
2022/03/22 00:36:58;;;;;;;26.77;16.63;;;5.10;99.90;;;;;;5014676;28;20477;-73
2022/03/22 00:39:25;;;;;;;37.10;16.57;;;5.10;99.90;;;;;;5014011;28;20536;-73
2022/03/22 00:41:53;;;;;;;26.50;15.60;;;5.10;99.90;;;;;;5014022;28;20950;-73
2022/03/22 00:44:22;;;;;;;21.10;14.63;;;5.10;99.90;;;;;;5013636;28;20458;-74
2022/03/22 00:46:50;;;;;;;26.80;16.23;;;5.00;99.90;;;;;;5014198;28;21247;-74
2022/03/22 00:49:17;;;;;;;23.50;14.40;;;5.00;99.90;;;;;;5014029;28;20551;-73
2022/03/22 00:51:44;;;;;;;27.93;14.73;;;5.00;99.90;;;;;;5014381;28;20488;-72
2022/03/22 00:54:11;;;;;;;25.30;15.27;;;4.90;99.90;;;;;;5006636;28;20577;-72
2022/03/22 00:56:37;;;;;;;24.07;14.03;;;4.90;99.90;;;;;;5005353;28;20849;-72
2022/03/22 01:01:50;;;;;;;21.80;14.57;;;4.90;99.90;;;;;;4994675;28;20513;-72
2022/03/22 01:04:16;;;;;;;26.53;14.80;;;4.80;99.90;;;;;;4998288;28;20454;-72
2022/03/22 01:06:44;;;;;;;24.73;13.63;;;4.80;99.90;;;;;;5014147;28;20473;-72
2022/03/22 01:09:10;;;;;;;23.63;14.50;;;4.70;99.90;;;;;;5013196;28;20458;-72
2022/03/22 01:11:39;;;;;;;29.30;15.50;;;4.70;99.90;;;;;;5013601;28;20512;-72
2022/03/22 01:14:07;;;;;;;29.47;15.70;;;4.60;99.90;;;;;;5013544;28;20485;-73
2022/03/22 01:16:34;;;;;;;24.43;15.20;;;4.60;99.90;;;;;;5013060;28;20454;-72
2022/03/22 01:19:02;;;;;;;26.73;15.30;;;4.60;99.90;;;;;;5013363;28;20942;-72
2022/03/22 01:21:29;;;;;;;32.33;14.63;;;4.50;99.90;;;;;;5013156;28;20466;-73
2022/03/22 01:23:56;;;;;;;25.27;15.90;;;4.50;99.90;;;;;;5012637;28;20446;-72
2022/03/22 01:26:22;;;;;;;26.63;16.47;;;4.50;99.90;;;;;;5013579;28;20458;-72
2022/03/22 01:28:50;;;;;;;28.73;15.30;;;4.50;99.90;;;;;;5005514;28;20474;-72
2022/03/22 01:31:17;;;;;;;24.70;15.20;;;4.50;99.90;;;;;;5013062;28;20461;-72
2022/03/22 01:33:44;;;;;;;23.33;15.23;;;4.50;99.90;;;;;;5012884;28;20482;-72
2022/03/22 01:36:12;;;;;;;29.27;16.93;;;4.50;99.90;;;;;;5013022;28;20472;-72
2022/03/22 01:38:38;;;;;;;34.30;16.77;;;4.50;99.90;;;;;;5012889;28;20520;-73
2022/03/22 01:41:05;;;;;;;29.33;16.63;;;4.50;99.90;;;;;;5013033;28;20951;-73
2022/03/22 01:43:32;;;;;;;35.43;18.37;;;4.40;99.90;;;;;;5012810;28;20497;-73
2022/03/22 01:45:59;;;;;;;26.73;16.07;;;4.40;99.90;;;;;;5013278;28;20458;-72
2022/03/22 01:48:25;;;;;;;32.60;17.47;;;4.40;99.90;;;;;;5012848;28;20470;-73
2022/03/22 01:50:52;;;;;;;31.77;17.10;;;4.40;99.90;;;;;;4994507;28;20459;-72
2022/03/22 01:53:20;;;;;;;29.67;16.87;;;4.70;99.90;;;;;;5012162;28;20524;-73
2022/03/22 01:55:47;;;;;;;31.37;17.67;;;4.30;99.90;;;;;;5000323;28;21184;-72
2022/03/22 01:58:14;;;;;;;30.53;17.77;;;4.30;99.90;;;;;;5012368;28;20524;-72
2022/03/22 02:00:41;;;;;;;28.60;17.80;;;4.30;99.90;;;;;;5012905;28;20477;-72
2022/03/22 02:06:07;;;;;;;33.50;19.10;;;4.20;99.90;;;;;;4970656;28;20587;-73
2022/03/22 02:08:35;;;;;;;34.53;18.60;;;4.20;99.90;;;;;;4970695;28;20519;-72
2022/03/22 02:11:02;;;;;;;34.43;17.80;;;4.10;99.90;;;;;;4989897;28;20461;-73
2022/03/22 02:13:31;;;;;;;29.93;17.17;;;4.10;99.90;;;;;;5011504;28;20899;-73
2022/03/22 02:15:59;;;;;;;37.87;18.60;;;4.10;99.90;;;;;;5013014;28;20553;-72
2022/03/22 02:18:26;;;;;;;34.23;19.10;;;4.10;99.90;;;;;;5011902;28;20893;-72
2022/03/22 02:20:53;;;;;;;30.50;17.80;;;4.10;99.90;;;;;;5011937;28;20489;-72
2022/03/22 02:23:22;;;;;;;28.70;18.27;;;4.10;99.90;;;;;;5012333;28;20469;-72
2022/03/22 02:25:50;;;;;;;35.63;17.70;;;4.10;99.90;;;;;;5011918;28;20873;-72
2022/03/22 02:28:20;;;;;;;34.93;19.60;;;4.10;99.90;;;;;;5008714;28;20474;-73
2022/03/22 02:30:48;;;;;;;31.37;18.70;;;4.00;99.90;;;;;;5012861;28;20454;-72
2022/03/22 02:33:15;;;;;;;33.23;19.30;;;4.00;99.90;;;;;;5012120;28;20490;-72
2022/03/22 02:35:41;;;;;;;33.60;18.07;;;4.00;99.90;;;;;;5012078;28;20458;-73
2022/03/22 02:38:08;;;;;;;31.20;18.10;;;4.00;99.90;;;;;;5011501;28;20556;-72
2022/03/22 02:40:37;;;;;;;37.37;19.07;;;4.00;99.90;;;;;;5011719;28;20533;-73
2022/03/22 02:43:05;;;;;;;31.07;17.40;;;4.00;99.90;;;;;;5011239;28;21062;-73
2022/03/22 02:45:32;;;;;;;32.67;17.63;;;4.00;99.90;;;;;;5011642;28;21025;-72
2022/03/22 02:47:58;;;;;;;38.90;18.50;;;3.90;99.90;;;;;;5011422;28;20506;-73
2022/03/22 02:50:25;;;;;;;31.73;18.13;;;3.90;99.90;;;;;;5011898;28;20454;-73
2022/03/22 02:52:52;;;;;;;33.97;18.17;;;3.80;99.90;;;;;;5011671;28;21005;-73
2022/03/22 02:55:20;;;;;;;32.00;17.70;;;3.80;99.90;;;;;;5005012;28;20490;-73
2022/03/22 02:57:47;;;;;;;27.60;17.13;;;3.80;99.90;;;;;;5011634;28;20474;-73
2022/03/22 03:00:16;;;;;;;31.03;17.57;;;3.70;99.90;;;;;;5011660;28;20876;-73
2022/03/22 03:02:45;;;;;;;41.67;18.83;;;3.60;99.90;;;;;;5011373;28;20488;-73
2022/03/22 03:05:11;;;;;;;32.00;18.70;;;3.60;99.90;;;;;;5011407;28;20874;-72
2022/03/22 03:07:38;;;;;;;35.67;17.90;;;3.50;99.90;;;;;;5011354;28;20532;-72
2022/03/22 03:10:06;;;;;;;32.43;19.03;;;3.50;99.90;;;;;;5011006;28;20514;-73
2022/03/22 03:12:33;;;;;;;29.20;17.17;;;3.50;99.90;;;;;;5011202;28;20504;-73
2022/03/22 03:15:00;;;;;;;29.80;17.07;;;3.40;99.90;;;;;;5011204;28;20485;-72
2022/03/22 03:17:27;;;;;;;32.00;17.57;;;3.40;99.90;;;;;;5011122;28;20478;-72
2022/03/22 03:19:54;;;;;;;29.00;16.67;;;3.40;99.90;;;;;;5008810;28;20466;-72
2022/03/22 03:22:21;;;;;;;34.97;17.90;;;3.40;99.90;;;;;;4995257;28;20458;-72
2022/03/22 03:24:48;;;;;;;34.17;17.97;;;3.30;99.90;;;;;;5010939;28;20454;-73
2022/03/22 03:27:15;;;;;;;28.70;17.57;;;3.30;99.90;;;;;;5010802;28;20993;-73
2022/03/22 03:29:41;;;;;;;39.47;19.50;;;3.40;99.90;;;;;;5007330;28;20529;-73
2022/03/22 03:32:09;;;;;;;34.50;19.10;;;3.30;99.90;;;;;;5011379;28;20520;-73
2022/03/22 03:34:37;;;;;;;34.13;18.47;;;3.30;99.90;;;;;;5010194;28;20482;-73
2022/03/22 03:37:04;;;;;;;33.20;19.20;;;3.30;99.90;;;;;;5010500;28;20870;-73
2022/03/22 03:39:30;;;;;;;37.47;18.90;;;3.30;99.90;;;;;;5010820;28;20465;-73
2022/03/22 03:41:58;;;;;;;39.27;20.10;;;3.30;99.90;;;;;;5010929;28;20450;-72
2022/03/22 03:47:12;;;;;;;36.87;19.50;;;3.60;99.90;;;;;;5011228;28;20454;-72
2022/03/22 03:49:41;;;;;;;35.90;19.20;;;3.30;99.90;;;;;;5010821;28;20446;-72
2022/03/22 03:52:10;;;;;;;35.83;19.00;;;3.20;99.90;;;;;;5011001;28;20938;-72
2022/03/22 03:54:37;;;;;;;36.17;19.07;;;3.20;99.90;;;;;;5004392;28;20485;-73
2022/03/22 03:57:05;;;;;;;35.60;19.30;;;3.20;99.90;;;;;;5010732;28;20501;-73
2022/03/22 03:59:31;;;;;;;36.43;18.43;;;3.20;99.90;;;;;;5010328;28;20516;-73
2022/03/22 04:01:58;;;;;;;35.13;19.60;;;3.20;99.90;;;;;;5011054;28;20454;-72
2022/03/22 04:04:25;;;;;;;39.37;20.73;;;3.10;99.90;;;;;;5010765;28;20508;-72
2022/03/22 04:06:53;;;;;;;31.60;18.60;;;3.10;99.90;;;;;;5010331;28;20474;-73
2022/03/22 04:09:19;;;;;;;31.67;18.10;;;3.00;99.90;;;;;;5010492;28;20454;-73
2022/03/22 04:11:47;;;;;;;33.97;17.97;;;3.00;99.90;;;;;;5010252;28;20946;-73
2022/03/22 04:14:13;;;;;;;32.03;18.90;;;3.00;99.90;;;;;;5009413;28;21075;-73
2022/03/22 04:16:40;;;;;;;36.27;19.20;;;2.90;99.90;;;;;;5009972;28;20955;-73
2022/03/22 04:19:08;;;;;;;36.50;18.63;;;2.90;99.90;;;;;;5010732;28;20504;-73
2022/03/22 04:21:35;;;;;;;39.03;19.53;;;2.90;99.90;;;;;;5000130;28;20541;-73
2022/03/22 04:24:05;;;;;;;42.20;20.70;;;2.90;99.90;;;;;;5010128;28;20478;-73
2022/03/22 04:26:33;;;;;;;40.53;20.63;;;2.90;99.90;;;;;;5010391;28;20454;-73
2022/03/22 04:34:27;;;;;;;44.73;20.93;;;3.00;99.90;;;;;;5010007;28;20840;-73
2022/03/22 04:36:57;;;;;;;41.13;21.50;;;3.00;99.90;;;;;;5010234;28;20860;-72
2022/03/22 04:39:26;;;;;;;37.10;21.67;;;3.00;99.90;;;;;;5010448;28;20462;-72
2022/03/22 04:41:53;;;;;;;41.83;22.03;;;3.00;99.90;;;;;;5010230;28;20454;-72
2022/03/22 04:44:20;;;;;;;44.23;22.77;;;3.10;99.90;;;;;;5010021;28;20450;-73
2022/03/22 04:46:47;;;;;;;44.70;21.63;;;3.00;99.90;;;;;;5010052;28;20476;-73
2022/03/22 04:49:13;;;;;;;43.30;21.63;;;3.10;99.90;;;;;;5009995;28;20450;-72
2022/03/22 04:57:11;;;;;;;47.60;22.50;;;3.00;99.90;;;;;;5010310;28;20561;-73
2022/03/22 04:59:38;;;;;;;37.77;20.83;;;3.00;99.90;;;;;;5010015;28;20943;-73
2022/03/22 05:02:05;;;;;;;37.33;21.07;;;2.90;99.90;;;;;;5010364;28;20454;-72
2022/03/22 05:04:32;;;;;;;41.47;22.10;;;2.90;99.90;;;;;;5009983;28;20451;-73
2022/03/22 05:06:58;;;;;;;49.73;22.67;;;2.90;99.90;;;;;;5012656;28;20893;-72
2022/03/22 05:09:28;;;;;;;45.73;22.50;;;2.90;99.90;;;;;;5012635;28;20450;-72
2022/03/22 05:11:55;;;;;;;40.20;21.23;;;2.90;99.90;;;;;;5013552;28;20462;-72
2022/03/22 05:14:22;;;;;;;41.87;22.47;;;3.00;99.90;;;;;;5013461;28;20482;-72
2022/03/22 05:16:48;;;;;;;46.90;21.67;;;3.00;99.90;;;;;;5013353;28;20528;-72
2022/03/22 05:19:15;;;;;;;40.10;21.67;;;3.00;99.90;;;;;;5013382;28;20666;-73
2022/03/22 05:21:42;;;;;;;41.93;22.20;;;3.00;99.90;;;;;;5011294;28;20496;-73
2022/03/22 05:24:09;;;;;;;38.57;20.87;;;3.00;99.90;;;;;;5012588;28;20479;-73
2022/03/22 05:26:38;;;;;;;43.83;22.33;;;3.00;99.90;;;;;;5012981;28;20457;-73
2022/03/22 05:29:05;;;;;;;39.03;23.23;;;3.10;99.90;;;;;;5000069;28;20887;-73
2022/03/22 05:31:34;;;;;;;47.13;23.87;;;3.10;99.90;;;;;;5010907;28;20528;-73
2022/03/22 05:34:01;;;;;;;40.17;22.27;;;3.10;99.90;;;;;;5012726;28;20455;-73
2022/03/22 05:36:27;;;;;;;39.70;22.40;;;3.10;99.90;;;;;;5012286;28;20865;-73
2022/03/22 05:38:54;;;;;;;44.87;23.20;;;3.10;99.90;;;;;;5013319;28;20489;-73
2022/03/22 05:41:22;;;;;;;40.77;23.03;;;3.10;99.90;;;;;;5013260;28;20508;-72
2022/03/22 05:43:50;;;;;;;40.03;22.67;;;3.10;99.90;;;;;;5013170;28;20458;-75
2022/03/22 05:46:17;;;;;;;48.00;22.40;;;3.10;99.90;;;;;;5012784;28;20467;-74
2022/03/22 05:48:44;;;;;;;38.97;23.10;;;3.10;99.90;;;;;;5013232;28;20474;-74
2022/03/22 05:51:11;;;;;;;43.03;23.73;;;3.20;99.90;;;;;;5012590;28;20454;-74
2022/03/22 05:53:38;;;;;;;44.03;21.90;;;3.30;99.90;;;;;;5009831;28;20460;-74
2022/03/22 05:56:05;;;;;;;40.37;22.87;;;3.60;99.90;;;;;;5003491;28;20482;-74
2022/03/22 05:58:32;;;;;;;40.93;22.13;;;3.90;99.90;;;;;;5012675;28;20466;-75
2022/03/22 06:01:00;;;;;;;37.03;20.00;;;4.10;99.90;;;;;;5011705;28;20450;-74
2022/03/22 06:03:26;;;;;;;38.63;20.83;;;4.30;99.90;;;;;;5012190;28;20446;-74
2022/03/22 06:05:53;;;;;;;39.23;21.80;;;4.50;99.90;;;;;;5012868;28;20504;-74
2022/03/22 06:08:20;;;;;;;39.53;20.70;;;4.70;99.90;;;;;;5012191;28;20474;-75
2022/03/22 06:10:47;;;;;;;43.27;22.60;;;4.90;99.90;;;;;;5012630;28;20825;-74
2022/03/22 06:13:14;;;;;;;40.63;21.87;;;5.10;99.90;;;;;;5012256;28;20458;-75
2022/03/22 06:15:40;;;;;;;40.73;21.77;;;5.40;99.90;;;;;;5012549;28;20534;-74
2022/03/22 06:18:11;;;;;;;44.77;20.10;;;5.60;99.90;;;;;;5010391;28;20470;-75
2022/03/22 06:20:39;;;;;;;42.83;22.70;;;6.00;99.90;;;;;;5004501;28;20566;-75
2022/03/22 06:23:06;;;;;;;41.00;20.83;;;6.20;99.90;;;;;;5009413;28;20454;-74
2022/03/22 06:25:34;;;;;;;32.30;20.17;;;6.60;99.90;;;;;;5011615;28;20450;-74
2022/03/22 06:28:01;;;;;;;39.00;19.97;;;6.90;99.90;;;;;;5011959;28;20842;-75
2022/03/22 06:30:27;;;;;;;37.37;20.77;;;7.20;99.90;;;;;;5012226;28;20458;-74
2022/03/22 06:32:56;;;;;;;37.40;20.27;;;7.60;99.90;;;;;;5011481;28;20939;-74
2022/03/22 06:35:25;;;;;;;57.90;21.60;;;8.00;99.90;;;;;;5011991;28;20481;-75
2022/03/22 06:37:53;;;;;;;39.20;19.60;;;8.30;99.90;;;;;;5008382;28;20474;-75
2022/03/22 06:40:22;;;;;;;44.33;20.90;;;8.50;99.90;;;;;;5011472;28;20462;-75
2022/03/22 06:42:49;;;;;;;40.47;21.67;;;8.70;99.90;;;;;;5011939;28;20508;-75
2022/03/22 06:45:16;;;;;;;32.90;21.17;;;8.90;99.90;;;;;;5011519;28;20939;-74
2022/03/22 06:47:44;;;;;;;35.60;21.47;;;9.10;99.90;;;;;;5011727;28;20952;-73
2022/03/22 06:50:13;;;;;;;41.87;21.90;;;9.40;99.90;;;;;;5011942;28;20471;-73
2022/03/22 06:52:41;;;;;;;38.77;22.03;;;9.60;99.90;;;;;;5011435;28;20504;-73
2022/03/22 06:55:09;;;;;;;37.93;21.17;;;9.80;99.90;;;;;;5005640;28;20536;-73
2022/03/22 06:57:37;;;;;;;32.67;20.80;;;10.00;99.90;;;;;;5011439;28;20474;-73
2022/03/22 07:00:06;;;;;;;38.23;21.57;;;10.10;99.90;;;;;;5012136;28;20454;-75
2022/03/22 07:02:33;;;;;;;43.60;21.80;;;10.50;99.90;;;;;;5011282;28;20458;-75
2022/03/22 07:05:00;;;;;;;35.83;20.83;;;10.60;99.90;;;;;;5011602;28;20516;-75
2022/03/22 07:07:27;;;;;;;36.47;21.37;;;10.70;99.90;;;;;;5010292;28;20547;-76
2022/03/22 07:09:55;;;;;;;40.67;21.67;;;10.80;99.90;;;;;;5009548;28;20477;-75
2022/03/22 07:12:21;;;;;;;34.27;21.03;;;11.10;99.90;;;;;;5011525;28;20504;-75
2022/03/22 07:14:48;;;;;;;31.90;20.83;;;11.30;99.90;;;;;;5011111;28;20486;-75
2022/03/22 07:17:15;;;;;;;31.93;21.10;;;11.50;99.90;;;;;;5010118;28;20540;-76
2022/03/22 07:19:41;;;;;;;33.30;20.20;;;11.60;99.90;;;;;;4997113;28;20446;-75
2022/03/22 07:22:10;;;;;;;35.73;22.13;;;11.60;99.90;;;;;;5006333;28;20529;-75
2022/03/22 07:24:37;;;;;;;33.70;20.43;;;11.60;99.90;;;;;;5010223;28;20462;-75
2022/03/22 07:27:06;;;;;;;33.70;20.63;;;11.70;99.90;;;;;;5005375;28;20541;-74
2022/03/22 07:29:32;;;;;;;32.90;20.40;;;11.70;99.90;;;;;;5004698;28;20500;-73
2022/03/22 07:31:59;;;;;;;35.93;21.67;;;11.70;99.90;;;;;;5008739;28;20517;-73
2022/03/22 07:34:27;;;;;;;34.70;21.30;;;11.70;99.90;;;;;;5002310;28;20443;-73
2022/03/22 07:36:54;;;;;;;35.63;21.97;;;11.60;99.90;;;;;;5010148;28;20473;-73
2022/03/22 07:39:22;;;;;;;35.13;21.23;;;11.50;99.90;;;;;;5010484;28;20463;-73
2022/03/22 07:41:49;;;;;;;34.33;21.20;;;11.50;99.90;;;;;;5010191;28;20466;-72
2022/03/22 07:44:18;;;;;;;35.63;20.20;;;11.40;99.90;;;;;;5007649;28;20684;-72
2022/03/22 07:46:45;;;;;;;40.33;23.23;;;11.20;99.90;;;;;;5005087;28;20534;-73
2022/03/22 07:54:41;;;;;;;36.23;21.70;;;11.50;99.90;;;;;;5006589;28;20454;-73
2022/03/22 07:57:08;;;;;;;32.63;20.10;;;11.70;99.90;;;;;;5008574;28;20811;-72
2022/03/22 07:59:36;;;;;;;32.57;20.83;;;11.80;99.90;;;;;;5009177;28;20452;-72
2022/03/22 08:02:03;;;;;;;39.33;21.60;;;11.90;99.90;;;;;;5011836;28;20520;-73
2022/03/22 08:04:29;;;;;;;36.90;21.57;;;12.10;99.90;;;;;;5007008;28;20450;-73
2022/03/22 08:06:56;;;;;;;34.20;20.70;;;12.40;99.90;;;;;;5006767;28;20474;-73
2022/03/22 08:09:22;;;;;;;35.33;21.80;;;12.60;99.90;;;;;;5010093;28;21089;-73
2022/03/22 08:11:50;;;;;;;35.77;20.93;;;12.80;99.90;;;;;;5008849;28;20476;-73
2022/03/22 08:14:16;;;;;;;31.40;21.20;;;13.10;99.90;;;;;;5007751;28;20450;-73
2022/03/22 08:16:45;;;;;;;31.47;21.73;;;13.30;99.90;;;;;;5008143;28;20993;-73
2022/03/22 08:19:17;;;;;;;33.63;21.50;;;13.30;99.90;;;;;;5013276;28;20981;-75
2022/03/22 08:21:44;;;;;;;32.53;21.00;;;13.50;99.90;;;;;;5021651;28;20561;-74
2022/03/22 08:24:11;;;;;;;32.33;21.80;;;13.80;99.90;;;;;;5007718;28;21002;-74
2022/03/22 08:26:38;;;;;;;34.40;20.30;;;14.10;99.90;;;;;;5009973;28;20516;-74
2022/03/22 08:29:04;;;;;;;33.30;19.87;;;14.30;99.90;;;;;;5023290;28;20811;-75
2022/03/22 08:31:31;;;;;;;32.13;20.23;;;14.30;99.90;;;;;;5028969;28;20583;-74
2022/03/22 08:33:59;;;;;;;28.13;19.93;;;14.60;99.90;;;;;;5021203;28;20458;-74
2022/03/22 08:36:26;;;;;;;29.53;20.23;;;15.00;99.90;;;;;;5010519;28;20482;-74
2022/03/22 08:38:52;;;;;;;26.50;18.83;;;15.20;99.90;;;;;;5010155;28;20458;-74
2022/03/22 08:41:19;;;;;;;33.20;20.80;;;15.40;99.90;;;;;;5011792;28;20864;-75
2022/03/22 08:43:46;;;;;;;37.57;20.50;;;15.30;99.90;;;;;;4996944;28;20459;-74
2022/03/22 08:46:14;;;;;;;32.83;19.77;;;15.20;99.90;;;;;;4994878;28;20458;-74
2022/03/22 08:48:40;;;;;;;28.37;19.33;;;15.30;99.90;;;;;;4999557;28;20540;-74
2022/03/22 08:51:08;;;;;;;32.90;19.90;;;15.50;99.90;;;;;;5014383;28;20458;-74
2022/03/22 08:53:35;;;;;;;34.17;19.63;;;15.70;99.90;;;;;;5013701;28;20454;-75
2022/03/22 08:56:03;;;;;;;27.70;19.10;;;15.90;99.90;;;;;;4995519;28;20537;-74
2022/03/22 08:58:30;;;;;;;29.17;19.30;;;16.10;99.90;;;;;;5001941;28;20538;-74
2022/03/22 09:00:57;;;;;;;25.63;18.30;;;16.40;99.80;;;;;;5014257;28;20549;-74
2022/03/22 09:03:26;;;;;;;30.17;17.77;;;16.40;98.90;;;;;;5013385;28;20864;-75
2022/03/22 09:06:12;;;;;;;28.20;17.27;;;16.40;99.00;;;;;;5013968;28;20458;-75
2022/03/22 09:08:42;;;;;;;19.37;15.33;;;16.60;97.20;;;;;;5014404;28;20451;-75
2022/03/22 09:11:09;;;;;;;19.37;14.60;;;16.90;93.50;;;;;;5013899;28;20435;-75
2022/03/22 09:13:37;;;;;;;23.73;15.30;;;16.70;89.40;;;;;;5013549;28;20425;-74
2022/03/22 09:16:05;;;;;;;23.03;15.60;;;16.40;86.70;;;;;;5013778;28;20501;-74
2022/03/22 09:18:32;;;;;;;22.33;15.57;;;16.10;89.00;;;;;;5013558;28;20477;-74
2022/03/22 09:20:58;;;;;;;24.53;15.13;;;16.00;87.40;;;;;;5024318;28;20439;-74
2022/03/22 09:23:25;;;;;;;21.50;14.57;;;16.10;88.10;;;;;;5011394;28;20437;-74
2022/03/22 09:25:54;;;;;;;22.97;14.60;;;16.20;86.10;;;;;;4993610;28;20451;-74
2022/03/22 09:28:20;;;;;;;21.67;15.60;;;16.40;87.30;;;;;;5009515;28;20473;-74
2022/03/22 09:30:49;;;;;;;24.90;16.37;;;16.70;87.70;;;;;;5033334;28;20424;-75
2022/03/22 09:33:17;;;;;;;20.47;14.87;;;16.80;86.40;;;;;;5029362;28;20548;-74
2022/03/22 09:35:44;;;;;;;18.90;14.50;;;16.80;86.20;;;;;;5013427;28;20490;-74
2022/03/22 09:38:11;;;;;;;21.40;14.60;;;16.70;84.00;;;;;;5013296;28;20444;-74
2022/03/22 09:40:37;;;;;;;24.50;15.33;;;16.60;82.90;;;;;;5013265;28;20433;-74
2022/03/22 09:43:07;;;;;;;20.87;14.57;;;16.60;82.80;;;;;;5013296;28;20454;-74
2022/03/22 09:45:34;;;;;;;26.80;14.20;;;16.50;80.70;;;;;;5013485;28;20501;-74
2022/03/22 09:48:01;;;;;;;21.23;14.57;;;16.40;81.50;;;;;;5012685;28;20883;-74
2022/03/22 09:53:11;;;;;;;24.00;15.13;;;16.50;82.20;;;;;;5012487;28;20474;-75
2022/03/22 09:55:37;;;;;;;21.93;14.60;;;16.00;81.40;;;;;;4993856;28;20537;-74
2022/03/22 09:58:05;;;;;;;22.63;15.67;;;15.90;82.20;;;;;;4993601;28;20449;-75
2022/03/22 10:00:32;;;;;;;26.10;15.67;;;16.20;83.00;;;;;;4993393;28;20455;-75
2022/03/22 10:03:00;;;;;;;18.90;13.73;;;16.10;81.00;;;;;;4997627;28;20861;-75
2022/03/22 10:05:28;;;;;;;26.80;14.57;;;16.20;83.30;;;;;;5012542;28;20492;-75
2022/03/22 10:07:59;;;;;;;24.43;15.43;;;16.20;82.90;;;;;;5012874;28;20460;-75
2022/03/22 10:10:27;;;;;;;20.53;14.97;;;16.30;83.60;;;;;;5012883;28;20516;-74
2022/03/22 10:12:59;;;;;;;23.03;14.90;;;16.30;82.40;;;;;;5012669;28;20778;-74
2022/03/22 10:15:32;;;;;;;21.40;14.60;;;16.10;81.20;;;;;;5011827;28;20512;-72
2022/03/22 10:18:04;;;;;;;22.50;15.60;;;15.90;82.90;;;;;;5012280;28;20573;-74
2022/03/22 10:20:32;;;;;;;22.27;14.43;;;16.10;83.30;;;;;;5019030;28;20428;-75
2022/03/22 10:23:00;;;;;;;21.47;14.07;;;16.30;81.80;;;;;;5031370;28;20969;-72
2022/03/22 10:25:27;;;;;;;18.03;14.00;;;16.70;81.50;;;;;;5016196;28;20458;-73
2022/03/22 10:27:56;;;;;;;21.93;15.23;;;17.30;81.30;;;;;;5015488;28;20448;-73
2022/03/22 10:30:23;;;;;;;19.43;14.90;;;17.80;82.10;;;;;;5031734;28;20424;-72
2022/03/22 10:32:52;;;;;;;24.03;15.70;;;18.10;77.60;;;;;;5016929;28;20425;-73
2022/03/22 10:35:20;;;;;;;22.50;15.23;;;18.20;79.90;;;;;;5011190;28;20530;-72
2022/03/22 10:37:49;;;;;;;20.13;14.47;;;18.20;79.80;;;;;;5011397;28;20459;-73
2022/03/22 10:40:25;;;;;;;21.20;15.90;;;18.40;82.10;;;;;;5011337;28;20437;-73
2022/03/22 10:42:53;;;;;;;22.70;15.03;;;18.70;79.60;;;;;;5012298;28;20472;-73
2022/03/22 10:45:20;;;;;;;27.23;14.97;;;18.60;77.10;;;;;;5011992;28;20776;-73
2022/03/22 10:47:47;;;;;;;20.10;14.73;;;18.70;78.60;;;;;;5012012;28;20471;-73
2022/03/22 10:50:15;;;;;;;23.83;14.37;;;18.70;78.80;;;;;;5012144;28;20436;-73
2022/03/22 10:52:49;;;;;;;20.23;14.67;;;19.10;77.30;;;;;;5011633;28;20457;-73
2022/03/22 10:55:19;;;;;;;19.57;13.07;;;18.90;74.80;;;;;;5005853;28;20462;-73
2022/03/22 10:57:48;;;;;;;19.63;13.80;;;18.70;73.90;;;;;;5009513;28;20490;-73
2022/03/22 11:00:16;;;;;;;21.40;13.90;;;18.50;73.40;;;;;;5000054;28;20454;-73
2022/03/22 11:02:43;;;;;;;22.60;13.70;;;18.50;71.10;;;;;;5011877;28;20450;-73
2022/03/22 11:05:10;;;;;;;22.80;13.63;;;18.00;71.90;;;;;;5011116;28;20450;-73
2022/03/22 11:07:41;;;;;;;22.53;14.80;;;17.80;74.00;;;;;;5011705;28;21001;-73
2022/03/22 11:10:08;;;;;;;21.70;14.73;;;17.80;74.10;;;;;;5011927;28;20425;-73
2022/03/22 11:12:37;;;;;;;22.00;14.00;;;17.80;72.50;;;;;;5011466;28;20483;-73
2022/03/22 11:15:05;;;;;;;18.00;13.13;;;18.00;74.50;;;;;;5011371;28;20849;-73
2022/03/22 11:17:34;;;;;;;21.20;12.33;;;18.00;73.10;;;;;;5011323;28;20489;-73
2022/03/22 11:20:04;;;;;;;18.07;13.37;;;18.10;74.00;;;;;;5014520;28;20457;-73
2022/03/22 11:22:31;;;;;;;15.93;12.80;;;18.60;73.20;;;;;;5031243;28;20453;-73
2022/03/22 11:25:09;;;;;;;17.50;13.07;;;18.80;73.30;;;;;;5031118;28;20574;-73
2022/03/22 11:27:37;;;;;;;17.57;12.20;;;18.60;70.60;;;;;;5029482;28;20470;-74
2022/03/22 11:30:05;;;;;;;23.23;12.90;;;18.70;71.20;;;;;;5010930;28;21220;-73
2022/03/22 11:35:17;;;;;;;19.10;11.73;;;19.20;68.80;;;;;;5010613;28;20429;-73
2022/03/22 11:37:54;;;;;;;18.00;13.57;;;18.80;69.10;;;;;;5011142;28;20518;-73
2022/03/22 11:43:11;;;;;;;18.63;12.40;;;18.90;70.00;;;;;;5010986;28;20426;-73
2022/03/22 11:45:49;;;;;;;15.40;12.50;;;19.20;67.80;;;;;;5010745;28;20462;-73
2022/03/22 11:48:17;;;;;;;17.73;11.90;;;19.00;67.00;;;;;;4998827;28;21037;-73
2022/03/22 11:50:44;;;;;;;23.77;13.00;;;19.10;69.50;;;;;;4991621;28;20490;-73
2022/03/22 11:53:18;;;;;;;18.00;12.63;;;19.10;70.30;;;;;;4991938;28;20491;-73
2022/03/22 11:55:50;;;;;;;20.77;12.87;;;19.00;68.40;;;;;;5008490;28;20454;-73
2022/03/22 11:58:16;;;;;;;19.73;13.60;;;18.90;67.80;;;;;;5010909;28;20462;-73
2022/03/22 12:00:45;;;;;;;19.87;13.00;;;19.20;68.30;;;;;;5010846;28;20464;-73
2022/03/22 12:03:13;;;;;;;26.77;13.40;;;19.40;68.80;;;;;;5010439;28;20823;-74
2022/03/22 12:05:41;;;;;;;17.43;12.80;;;19.80;68.80;;;;;;5002325;28;20509;-73
2022/03/22 12:08:09;;;;;;;19.20;13.20;;;19.70;68.60;;;;;;5010345;28;20470;-74
2022/03/22 12:10:36;;;;;;;22.70;13.70;;;19.50;69.20;;;;;;5010600;28;20500;-73
2022/03/22 12:13:04;;;;;;;18.50;12.30;;;19.60;69.00;;;;;;5009778;28;20442;-73
2022/03/22 12:15:31;;;;;;;27.50;14.40;;;20.10;68.60;;;;;;5009775;28;20215;-73
2022/03/22 12:17:58;;;;;;;17.13;13.13;;;20.30;66.30;;;;;;5014780;28;21068;-73
2022/03/22 12:20:25;;;;;;;22.63;13.47;;;20.20;67.10;;;;;;5016552;28;20996;-73
2022/03/22 12:22:55;;;;;;;19.40;13.70;;;20.40;66.60;;;;;;5014469;28;20453;-74
2022/03/22 12:25:23;;;;;;;18.20;12.70;;;20.90;70.90;;;;;;5013728;28;20454;-72
2022/03/22 12:27:54;;;;;;;16.53;12.70;;;21.20;66.40;;;;;;5011842;28;20473;-72
2022/03/22 12:30:24;;;;;;;16.30;12.00;;;21.10;64.00;;;;;;5012627;28;21028;-72
2022/03/22 12:32:52;;;;;;;18.97;11.80;;;20.70;64.80;;;;;;5001949;28;21004;-72
2022/03/22 12:35:19;;;;;;;18.17;12.67;;;20.40;63.80;;;;;;5013622;28;20465;-72
2022/03/22 12:37:46;;;;;;;17.50;12.67;;;20.40;64.40;;;;;;5013881;28;20489;-72
2022/03/22 12:40:13;;;;;;;16.73;13.27;;;20.20;64.30;;;;;;5011619;28;20446;-72
2022/03/22 12:42:41;;;;;;;15.03;11.80;;;20.00;64.20;;;;;;4994367;28;20442;-72
2022/03/22 12:45:09;;;;;;;17.93;12.00;;;20.00;63.50;;;;;;4995608;28;20517;-72
2022/03/22 12:47:38;;;;;;;17.63;10.80;;;20.30;64.40;;;;;;4994036;28;20475;-72
2022/03/22 12:50:07;;;;;;;12.90;10.80;;;20.70;63.30;;;;;;4994255;28;20446;-73
2022/03/22 12:52:33;;;;;;;22.13;10.80;;;20.90;61.70;;;;;;4997529;28;20758;-73
2022/03/22 12:55:00;;;;;;;12.00;10.50;;;21.40;61.80;;;;;;4999241;28;20458;-74
2022/03/22 12:57:27;;;;;;;14.63;10.90;;;21.50;61.00;;;;;;5011412;28;20489;-73
2022/03/22 12:59:53;;;;;;;17.53;10.07;;;21.00;60.50;;;;;;5013299;28;20450;-73
2022/03/22 13:02:20;;;;;;;21.90;11.63;;;20.70;59.80;;;;;;5013215;28;20462;-72
2022/03/22 13:04:51;;;;;;;16.20;11.73;;;20.70;59.40;;;;;;5012804;28;20453;-73
2022/03/22 13:07:22;;;;;;;16.43;11.70;;;20.50;61.40;;;;;;5009096;28;20528;-73